createdAt,value
2023-04-15T00:02:49.483Z,79
2023-04-15T00:07:55.537Z,80
2023-04-15T00:13:01.667Z,80.5
2023-04-15T00:18:07.773Z,82
2023-04-15T00:23:13.941Z,81.5
2023-04-15T00:28:20.113Z,81
2023-04-15T00:33:26.226Z,80.5
2023-04-15T00:38:32.357Z,79.5
2023-04-15T00:43:38.519Z,79.5
2023-04-15T00:48:44.637Z,79
2023-04-15T00:53:50.796Z,79.5
2023-04-15T00:58:56.917Z,80.5
2023-04-15T01:04:03.096Z,82
2023-04-15T01:09:09.192Z,82
2023-04-15T01:14:15.357Z,81.5
2023-04-15T01:19:21.453Z,80.5
2023-04-15T01:24:27.616Z,81.5
2023-04-15T01:29:33.764Z,82.5
2023-04-15T01:34:39.892Z,83
2023-04-15T01:39:46.023Z,84.5
2023-04-15T01:44:52.179Z,82
2023-04-15T01:49:58.322Z,83
2023-04-15T01:55:04.474Z,82.5
2023-04-15T02:00:10.620Z,83.5
2023-04-15T02:05:16.757Z,83
2023-04-15T02:10:22.899Z,82.5
2023-04-15T02:15:29.026Z,82
2023-04-15T02:20:35.161Z,84
2023-04-15T02:25:41.301Z,82.5
2023-04-15T02:30:47.449Z,83
2023-04-15T02:35:53.586Z,83.5
2023-04-15T02:40:59.734Z,82.5
2023-04-15T02:46:05.958Z,81.5
2023-04-15T02:51:12.007Z,82
2023-04-15T02:56:18.132Z,83.5
2023-04-15T03:01:24.317Z,82.5
2023-04-15T03:06:30.462Z,84
2023-04-15T03:11:36.592Z,83
2023-04-15T03:16:42.698Z,83.5
2023-04-15T03:21:48.856Z,83
2023-04-15T03:26:54.969Z,82.5
2023-04-15T03:32:01.104Z,82.5
2023-04-15T03:37:07.260Z,81.5
2023-04-15T03:42:13.374Z,83
2023-04-15T03:47:29.811Z,82
2023-04-15T03:52:36.121Z,82
2023-04-15T03:57:42.098Z,82.5
2023-04-15T04:02:48.292Z,83.5
2023-04-15T04:07:54.379Z,83.5
2023-04-15T04:13:00.545Z,86
2023-04-15T04:18:06.673Z,86.5
2023-04-15T04:23:12.801Z,85.5
2023-04-15T04:28:18.992Z,86
2023-04-15T04:33:25.066Z,87.5
2023-04-15T04:38:31.210Z,88
2023-04-15T04:43:37.368Z,88
2023-04-15T04:48:44.046Z,89.5
2023-04-15T04:53:49.647Z,89.5
2023-04-15T04:58:55.781Z,89.5
2023-04-15T05:04:02.021Z,88.5
2023-04-15T05:09:08.074Z,88.5
2023-04-15T05:14:14.184Z,91
2023-04-15T05:19:20.327Z,89
2023-04-15T05:24:26.466Z,88
2023-04-15T05:29:32.607Z,89.5
2023-04-15T05:34:38.741Z,89
2023-04-15T05:39:44.899Z,89
2023-04-15T05:44:51.100Z,91
2023-04-15T05:49:57.204Z,91
2023-04-15T05:55:03.352Z,92
2023-04-15T06:00:09.437Z,92
2023-04-15T06:05:15.589Z,92
2023-04-15T06:10:21.710Z,91.5
2023-04-15T06:15:27.852Z,91
2023-04-15T06:20:34.004Z,91.5
2023-04-15T06:25:40.148Z,89.5
2023-04-15T06:30:46.306Z,86.5
2023-04-15T06:35:52.437Z,88
2023-04-15T06:40:58.577Z,83
2023-04-15T06:46:04.752Z,81.5
2023-04-15T06:51:10.865Z,82.5
2023-04-15T06:56:16.991Z,82.5
2023-04-15T07:01:23.199Z,76
2023-04-15T07:06:29.263Z,78.5
2023-04-15T07:11:35.438Z,86
2023-04-15T07:16:41.647Z,88.5
2023-04-15T07:21:47.719Z,89.5
2023-04-15T07:26:53.874Z,88.5
2023-04-15T07:31:59.971Z,86
2023-04-15T07:37:06.148Z,86
2023-04-15T07:42:12.269Z,83
2023-04-15T07:47:18.466Z,88.5
2023-04-15T07:52:24.551Z,88.5
2023-04-15T07:57:30.673Z,85.5
2023-04-15T08:02:38.093Z,87.5
2023-04-15T08:07:43.032Z,85.5
2023-04-15T08:12:49.110Z,86.5
2023-04-15T08:17:55.273Z,88
2023-04-15T08:23:01.367Z,89.5
2023-04-15T08:28:07.518Z,92
2023-04-15T08:33:13.679Z,92.5
2023-04-15T08:38:19.821Z,93.5
2023-04-15T08:43:25.934Z,92.5
2023-04-15T08:48:32.087Z,94
2023-04-15T08:53:38.238Z,93
2023-04-15T08:58:44.396Z,92.5
2023-04-15T09:03:50.650Z,89.5
2023-04-15T09:08:56.649Z,89
2023-04-15T09:14:02.776Z,90
2023-04-15T09:19:08.933Z,90.5
2023-04-15T09:24:15.068Z,89
2023-04-15T09:29:21.195Z,88
2023-04-15T09:34:27.327Z,88.5
2023-04-15T09:39:33.518Z,88
2023-04-15T09:44:39.622Z,90
2023-04-15T09:49:45.855Z,90.5
2023-04-15T09:54:51.899Z,89.5
2023-04-15T09:59:58.056Z,90
2023-04-15T10:05:04.197Z,89
2023-04-15T10:10:10.362Z,92
2023-04-15T10:15:16.480Z,93
2023-04-15T10:20:22.699Z,90.5
2023-04-15T10:25:28.745Z,88
2023-04-15T10:30:34.914Z,86
2023-04-15T10:35:41.056Z,91
2023-04-15T10:40:47.209Z,90
2023-04-15T10:45:53.309Z,88
2023-04-15T10:50:59.452Z,87.5
2023-04-15T10:56:05.592Z,88.5
2023-04-15T11:01:11.713Z,87.5
2023-04-15T11:06:17.871Z,85
2023-04-15T11:11:24.028Z,90
2023-04-15T11:16:30.173Z,93.5
2023-04-15T11:21:36.328Z,90.5
2023-04-15T11:26:42.434Z,95
2023-04-15T11:31:48.675Z,92
2023-04-15T11:36:54.727Z,92.5
2023-04-15T11:42:00.856Z,93
2023-04-15T11:47:07.009Z,91
2023-04-15T11:52:13.147Z,93.5
2023-04-15T11:57:19.296Z,92
2023-04-15T12:02:25.512Z,93.5
2023-04-15T12:07:31.555Z,92
2023-04-15T12:12:37.700Z,94
2023-04-15T12:17:51.188Z,95
2023-04-15T12:22:49.993Z,96
2023-04-15T12:27:56.138Z,96
2023-04-15T12:33:02.379Z,95
2023-04-15T12:38:08.422Z,93.5
2023-04-15T12:43:14.529Z,94.5
2023-04-15T12:48:20.668Z,95
2023-04-15T12:53:26.822Z,90.5
2023-04-15T12:58:32.979Z,95.5
2023-04-15T13:03:39.199Z,95.5
2023-04-15T13:08:55.324Z,93
2023-04-15T13:13:51.385Z,93.5
2023-04-15T13:18:57.506Z,96.5
2023-04-15T13:24:04.107Z,93.5
2023-04-15T13:29:09.789Z,94
2023-04-15T13:34:15.934Z,93.5
2023-04-15T13:39:22.072Z,94
2023-04-15T13:44:28.206Z,91.5
2023-04-15T13:49:34.373Z,90.5
2023-04-15T13:54:40.508Z,89
2023-04-15T13:59:46.628Z,84
2023-04-15T14:04:52.773Z,83
2023-04-15T14:09:58.919Z,82.5
2023-04-15T14:15:05.072Z,88.5
2023-04-15T14:20:11.216Z,84
2023-04-15T14:25:26.875Z,89.5
2023-04-15T14:30:23.482Z,94
2023-04-15T14:35:29.621Z,94.5
2023-04-15T14:40:35.759Z,94.5
2023-04-15T14:45:42.382Z,93
2023-04-15T14:50:48.048Z,94
2023-04-15T14:55:54.189Z,92.5
2023-04-15T15:01:00.330Z,89
2023-04-15T15:06:06.467Z,93
2023-04-15T15:11:12.592Z,93.5
2023-04-15T15:16:18.751Z,93.5
2023-04-15T15:21:24.874Z,94.5
2023-04-15T15:26:31.044Z,93
2023-04-15T15:31:37.267Z,90
2023-04-15T15:36:43.311Z,90
2023-04-15T15:41:49.456Z,87.5
2023-04-15T15:46:55.659Z,90.5
2023-04-15T15:52:01.717Z,93
2023-04-15T15:57:07.908Z,90
2023-04-15T16:02:14.074Z,88
2023-04-15T16:07:20.167Z,87.5
2023-04-15T16:12:26.340Z,91
2023-04-15T16:17:32.463Z,88.5
2023-04-15T16:22:38.567Z,89.5
2023-04-15T16:27:57.623Z,91
2023-04-15T16:32:50.896Z,88
2023-04-15T16:37:57.028Z,91
2023-04-15T16:43:03.126Z,88
2023-04-15T16:48:09.263Z,87
2023-04-15T16:53:15.421Z,86
2023-04-15T16:58:21.559Z,88.5
2023-04-15T17:03:27.765Z,92
2023-04-15T17:08:33.841Z,91
2023-04-15T17:13:39.986Z,92.5
2023-04-15T17:18:46.085Z,93
2023-04-15T17:23:52.247Z,94
2023-04-15T17:28:58.407Z,95
2023-04-15T17:34:10.096Z,95.5
2023-04-15T17:39:10.682Z,96
2023-04-15T17:44:17.844Z,97
2023-04-15T17:49:22.961Z,96
2023-04-15T17:54:29.100Z,96.5
2023-04-15T17:59:35.257Z,95.5
2023-04-15T18:04:41.585Z,96.5
2023-04-15T18:09:47.546Z,97
2023-04-15T18:14:53.667Z,97.5
2023-04-15T18:19:59.802Z,97.5
2023-04-15T18:25:05.937Z,96.5
2023-04-15T18:30:12.069Z,97
2023-04-15T18:35:18.233Z,96.5
2023-04-15T18:40:24.363Z,97
2023-04-15T18:45:30.546Z,94.5
2023-04-15T18:50:36.647Z,94.5
2023-04-15T18:55:42.792Z,94
2023-04-15T19:00:48.965Z,93.5
2023-04-15T19:05:55.064Z,94.5
2023-04-15T19:11:01.204Z,94.5
2023-04-15T19:16:07.417Z,92.5
2023-04-15T19:21:13.473Z,97
2023-04-15T19:26:19.626Z,97.5
2023-04-15T19:31:25.896Z,96.5
2023-04-15T19:36:31.892Z,94.5
2023-04-15T19:41:38.034Z,92.5
2023-04-15T19:46:44.167Z,93
2023-04-15T19:51:50.330Z,93.5
2023-04-15T19:56:56.479Z,92
2023-04-15T20:02:02.790Z,91.5
2023-04-15T20:07:08.773Z,92
2023-04-15T20:12:48.527Z,92.5
2023-04-15T20:17:21.062Z,93.5
2023-04-15T20:22:27.167Z,91.5
2023-04-15T20:27:33.309Z,88.5
2023-04-15T20:32:39.449Z,84.5
2023-04-15T20:37:45.585Z,84.5
2023-04-15T20:42:51.750Z,89.5
2023-04-15T20:47:57.892Z,85
2023-04-15T20:53:14.254Z,87
2023-04-15T20:58:20.397Z,88.5
2023-04-15T21:03:26.589Z,86
2023-04-15T21:08:32.712Z,87
2023-04-15T21:13:38.841Z,84.5
2023-04-15T21:18:44.997Z,85.5
2023-04-15T21:23:51.138Z,88.5
2023-04-15T21:28:57.261Z,89.5
2023-04-15T21:34:03.387Z,90
2023-04-15T21:39:09.564Z,83
2023-04-15T21:44:15.677Z,87.5
2023-04-15T21:49:22.686Z,81.5
2023-04-15T21:54:27.966Z,80
2023-04-15T21:59:34.090Z,84
2023-04-15T22:04:40.243Z,84.5
2023-04-15T22:09:46.395Z,86.5
2023-04-15T22:14:52.513Z,85.5
2023-04-15T22:19:58.677Z,85.5
2023-04-15T22:25:04.816Z,87.5
2023-04-15T22:30:10.990Z,83.5
2023-04-15T22:35:17.089Z,88.5
2023-04-15T22:40:23.201Z,86.5
2023-04-15T22:45:29.373Z,84.5
2023-04-15T22:50:35.504Z,84
2023-04-15T22:55:41.646Z,83.5
2023-04-15T23:00:47.840Z,83
2023-04-15T23:05:53.927Z,81.5
2023-04-15T23:11:00.099Z,80
2023-04-15T23:16:06.346Z,82.5
2023-04-15T23:21:12.355Z,87
2023-04-15T23:26:18.484Z,84
2023-04-15T23:31:24.696Z,85.5
2023-04-15T23:36:30.768Z,85.5
2023-04-15T23:41:36.893Z,88
2023-04-15T23:46:43.063Z,89
2023-04-15T23:51:49.175Z,88.5
2023-04-15T23:56:55.334Z,88
